Terminal Aerodrome Forecast
Issued by NWS Lake Charles, LA

Home | Current Version | Previous Version | Text Only | Print | Product List | Glossary On
Versions: 1 2 3 4 5 6 7 8 9 10 11 12 13 14 15 16 17
715
FTUS44 KLCH 190539
TAFARA
TAF
KARA 190539Z 1906/2006 17010KT P6SM VCSH OVC004
     FM190800 17007KT 4SM BR VCSH OVC004
      TEMPO 1908/1912 2SM SHRA OVC003
     FM191400 18004KT 2SM -SHRA VCTS OVC005CB
     FM191800 21008KT 5SM -SHRA VCTS OVC007CB
     FM200100 21007KT 6SM BR VCSH OVC007
     FM200400 19004KT 2SM BR OVC004=

USA.gov is the U.S. government's official web portal to all federal, state and local government web resources and services.